Henderson, MN (56044)

9:15 AM CDT on September 02, 2015 (GMT -0500)
MesoWest | | Change Station
CLOSE
Current Station
Personal Weather Station
Location: Henderson, MN
Elevation: 724 ft
Nearby Weather Stations

Elev 724 ft 44.58 °N, 93.89 °W | Updated 2 hours ago

Mostly Cloudy
Mostly Cloudy
70.0 °F
Feels Like 70.0 °F
N
0.0
Wind Variable Wind from North
Gusts 0.0 mph

Today
High -- | Low -- °F
--% Chance of Precip.
Yesterday
High -- | Low -- °F
Precip. -- in
6:39 AM 7:50 PM
Waning Gibbous, 80% visible
Pressure 29.90 in
Visibility 10.0 miles
Clouds Scattered Clouds 2700 ft
Dew Point Not available.
Humidity Not available.
Rainfall in
Snow Depth Not available.
UV 1 out of 12
Pollen 9.20 out of 12
Air Quality Not available.
Flu Activity Not available.
METAR KGYL 021354Z AUTO 17006KT 10SM SCT027 23/21 A2990 RMK AO2 T02250213
Pressure 29.90 in
Visibility 10.0 miles
Clouds Scattered Clouds 2700 ft
Dew Point Not available.
Humidity Not available.
Rainfall in
Snow Depth Not available.
UV 1 out of 12
Pollen 9.20 out of 12
Air Quality Not available.
Flu Activity Not available.
METAR KGYL 021354Z AUTO 17006KT 10SM SCT027 23/21 A2990 RMK AO2 T02250213

10-Day Weather Forecast

×

Almanac

Astronomy

Sep. 02, 2015 Rise Set
Actual Time
Civil Twilight
Nautical Twilight
Astronomical Twilight
Moon
Length of Visible Light
Length of Day
Tomorrow will be .
, % of the Moon is Illuminated

Today's Extremes

State Highs State Lows

Community

WunderPhotos

Upload Photos

1,851,758 photos uploaded!

WunderBlogs® & News

Nearby

Air Quality

  Air Quality AQ Index Pollutant
Not available.

Snow Depth

Station Depth Elevation

Earthquake Activity

City Distance Mag. Time & Date
Minimum magnitude displayed is 2.5.

Coastal Water Temperatures

Place Temperature

Stations

Nearby Weather Stations

Station Location Temp. Windchill Dew Point Humidity Wind Precip. Elev Updated Type